Time;durP1;ratioP1;P1;durP2;ratioP2;P2;SDS_P1;SDS_P2;PMS_P1;PMS_P2;Temp;Humidity;BMP_temperature;BMP_pressure;BME280_temperature;BME280_humidity;BME280_pressure;Samples;Min_cycle;Max_cycle;Signal;HPM_P1;HPM_P2
2021/12/12 00:01:37;;;;;;;15.53;13.93;;;;;;;7.88;89.33;100797.68;1673495;84;21046;-62
2021/12/12 00:04:12;;;;;;;17.40;12.70;;;;;;;7.88;89.37;100797.17;1666920;84;21076;-58
2021/12/12 00:06:46;;;;;;;15.37;13.37;;;;;;;7.90;89.37;100801.83;1671051;84;21030;-60
2021/12/12 00:09:24;;;;;;;17.63;13.93;;;;;;;7.87;88.89;100801.31;1671576;84;21030;-58
2021/12/12 00:11:51;;;;;;;17.70;15.33;;;;;;;7.85;88.98;100806.77;1681251;84;21746;-59
2021/12/12 00:14:29;;;;;;;17.23;15.40;;;;;;;7.84;89.08;100805.12;1666544;84;21078;-61
2021/12/12 00:16:57;;;;;;;17.73;15.20;;;;;;;7.85;89.02;100811.26;1682046;84;21077;-59
2021/12/12 00:19:27;;;;;;;17.47;15.67;;;;;;;7.87;89.04;100806.12;1680265;84;21069;-61
2021/12/12 00:21:58;;;;;;;15.03;13.43;;;;;;;7.89;89.03;100797.53;1679159;84;21328;-60
2021/12/12 00:24:25;;;;;;;15.23;13.63;;;;;;;7.90;88.89;100804.48;1651335;85;21509;-59
2021/12/12 00:26:54;;;;;;;15.70;13.83;;;;;;;7.90;88.92;100820.41;1636723;86;21533;-63
2021/12/12 00:29:22;;;;;;;15.40;13.80;;;;;;;7.89;89.03;100816.11;1698589;84;21570;-59
2021/12/12 00:31:53;;;;;;;14.20;12.47;;;;;;;7.89;89.15;100825.87;1654484;85;21039;-61
2021/12/12 00:34:19;;;;;;;13.57;12.20;;;;;;;7.89;89.18;100828.52;1673410;84;21086;-61
2021/12/12 00:36:45;;;;;;;15.90;13.70;;;;;;;7.88;89.17;100818.91;1649014;85;21081;-61
2021/12/12 00:39:17;;;;;;;18.73;13.60;;;;;;;7.88;89.16;100815.76;1686536;84;21069;-60
2021/12/12 00:41:59;;;;;;;14.40;12.93;;;;;;;7.88;89.00;100832.19;1676011;84;21034;-60
2021/12/12 00:44:28;;;;;;;14.73;13.23;;;;;;;7.86;89.04;100828.36;1678080;84;21121;-59
2021/12/12 00:46:58;;;;;;;20.07;14.47;;;;;;;7.79;89.12;100829.47;1654603;86;21053;-60
2021/12/12 00:49:26;;;;;;;16.27;14.53;;;;;;;7.76;89.19;100827.16;1671966;84;21089;-59
2021/12/12 00:51:54;;;;;;;17.37;15.43;;;;;;;7.73;89.09;100834.59;1673018;84;21054;-63
2021/12/12 00:54:21;;;;;;;19.20;15.40;;;;;;;7.71;89.08;100832.59;1665197;84;21090;-59
2021/12/12 00:56:48;;;;;;;16.07;14.37;;;;;;;7.70;89.11;100834.90;1676342;84;21575;-58
2021/12/12 00:59:15;;;;;;;14.70;13.03;;;;;;;7.72;89.10;100831.59;1677807;84;21526;-58
2021/12/12 01:01:47;;;;;;;14.80;13.20;;;;;;;7.75;89.02;100829.96;1671936;84;21649;-59
2021/12/12 01:04:34;;;;;;;13.57;12.17;;;;;;;7.74;88.74;100833.12;1659049;85;21018;-59
2021/12/12 01:07:05;;;;;;;13.80;12.37;;;;;;;7.74;88.65;100835.77;1658982;85;21152;-58
2021/12/12 01:09:37;;;;;;;19.63;16.50;;;;;;;7.74;88.58;100833.59;1678093;84;20991;-60
2021/12/12 01:12:09;;;;;;;17.60;15.67;;;;;;;7.77;88.57;100825.33;1664727;85;21225;-62
2021/12/12 01:14:41;;;;;;;18.43;16.60;;;;;;;7.78;88.47;100833.13;1671443;84;21042;-58
2021/12/12 01:17:19;;;;;;;21.67;17.93;;;;;;;7.75;88.26;100833.94;1673709;84;22425;-61
2021/12/12 01:19:51;;;;;;;21.83;17.17;;;;;;;7.75;88.32;100843.23;1672972;85;21046;-60
2021/12/12 01:22:28;;;;;;;20.43;18.10;;;;;;;7.77;88.31;100841.25;1669282;85;21526;-59
2021/12/12 01:24:59;;;;;;;20.68;18.37;;;;;;;7.75;88.39;100844.05;1661778;84;21110;-58
2021/12/12 01:27:26;;;;;;;17.60;15.83;;;;;;;7.76;88.34;100840.89;1660474;84;21084;-57
2021/12/12 01:29:53;;;;;;;16.10;14.50;;;;;;;7.74;88.28;100845.53;1667726;84;21014;-58
2021/12/12 01:32:30;;;;;;;17.23;15.40;;;;;;;7.74;88.26;100853.02;1676912;84;21019;-59
2021/12/12 01:34:53;;;;;;;16.20;14.50;;;;;;;7.73;88.15;100857.97;1659360;85;21130;-66
2021/12/12 01:39:56;;;;;;;21.57;19.20;;;;;;;7.63;88.19;100835.18;1666716;85;21022;-58
2021/12/12 01:42:32;;;;;;;18.13;16.23;;;;;;;7.70;88.29;100853.47;1661538;85;21296;-59
2021/12/12 01:45:16;;;;;;;19.07;17.07;;;;;;;7.71;88.32;100857.80;1684613;84;20995;-59
2021/12/12 01:47:59;;;;;;;17.73;15.93;;;;;;;7.70;88.39;100855.62;1678981;84;21086;-59
2021/12/12 01:50:34;;;;;;;12.93;11.57;;;;;;;7.71;88.40;100870.57;1677311;84;21573;-58
2021/12/12 01:53:04;;;;;;;13.70;11.27;;;;;;;7.67;88.69;100864.42;1656037;86;21587;-64
2021/12/12 01:55:48;;;;;;;11.60;10.43;;;;;;;7.66;88.86;100876.83;1686150;84;21058;-58
2021/12/12 01:58:20;;;;;;;12.90;10.43;;;;;;;7.64;89.01;100877.98;1671355;84;21026;-59
2021/12/12 02:01:03;;;;;;;9.83;8.93;;;;;;;7.63;89.12;100878.96;1646842;86;22317;-59
2021/12/12 02:03:35;;;;;;;10.63;9.53;;;;;;;7.53;89.41;100874.58;1652530;86;21109;-58
2021/12/12 02:06:06;;;;;;;12.67;11.43;;;;;;;7.55;89.33;100878.41;1641392;85;21043;-57
2021/12/12 02:08:35;;;;;;;12.00;10.73;;;;;;;7.52;89.56;100876.09;1660979;85;21580;-61
2021/12/12 02:11:07;;;;;;;13.60;12.30;;;;;;;7.51;89.68;100876.56;1658129;85;22228;-59
2021/12/12 02:13:43;;;;;;;13.37;11.97;;;;;;;7.44;90.06;100860.95;1675310;84;21038;-59
2021/12/12 02:16:11;;;;;;;12.07;10.80;;;;;;;7.46;89.96;100866.94;1676591;84;21092;-60
2021/12/12 02:18:45;;;;;;;12.20;10.90;;;;;;;7.45;90.23;100873.21;1662842;85;21161;-59
2021/12/12 02:21:21;;;;;;;13.00;11.63;;;;;;;7.44;90.22;100875.54;1681676;84;21483;-58
2021/12/12 02:37:27;;;;;;;12.20;11.00;;;;;;;7.49;90.37;100889.15;1670238;85;21050;-61
2021/12/12 02:39:56;;;;;;;13.60;12.17;;;;;;;7.51;90.40;100891.16;1657691;84;21077;-57
2021/12/12 02:42:23;;;;;;;14.53;12.50;;;;;;;7.54;90.49;100889.53;1663998;84;21066;-59
2021/12/12 02:44:56;;;;;;;14.03;12.40;;;;;;;7.59;90.46;100889.05;1668291;84;21574;-59
2021/12/12 02:47:31;;;;;;;15.33;13.37;;;;;;;7.61;90.09;100891.08;1674090;85;21092;-60
2021/12/12 02:52:29;;;;;;;16.13;14.53;;;;;;;7.56;90.22;100882.24;1669056;84;21038;-58
2021/12/12 02:55:07;;;;;;;17.77;16.03;;;;;;;7.58;90.26;100883.42;1667258;84;21054;-58
2021/12/12 02:57:35;;;;;;;20.27;18.07;;;;;;;7.59;90.24;100888.58;1671047;85;21085;-60
2021/12/12 03:00:05;;;;;;;;;;;;;;;7.56;90.31;100884.89;1673828;85;21069;-59
2021/12/12 03:02:40;;;;;;;21.93;18.23;;;;;;;7.58;90.31;100884.75;1671228;84;20158;-58
2021/12/12 03:05:05;;;;;;;20.23;16.17;;;;;;;7.54;90.49;100881.56;1678191;85;21024;-57
2021/12/12 03:07:31;;;;;;;18.07;15.80;;;;;;;7.55;90.64;100882.39;1662568;85;21125;-59
2021/12/12 03:09:58;;;;;;;17.67;15.70;;;;;;;7.53;90.82;100884.37;1659764;85;21049;-58
2021/12/12 03:12:33;;;;;;;19.30;16.40;;;;;;;7.56;90.79;100884.07;1684229;84;21112;-59
2021/12/12 03:15:16;;;;;;;22.27;17.27;;;;;;;7.54;91.01;100892.18;1701884;83;21470;-62
2021/12/12 03:17:46;;;;;;;20.33;15.67;;;;;;;7.55;90.93;100891.20;1699076;84;21036;-59
2021/12/12 03:20:25;;;;;;;15.63;13.30;;;;;;;7.60;91.00;100892.05;1686866;84;21017;-59
2021/12/12 03:23:03;;;;;;;11.80;10.57;;;;;;;7.65;90.89;100898.20;1684532;84;21029;-58
2021/12/12 03:25:35;;;;;;;13.90;12.40;;;;;;;7.67;90.78;100899.73;1663237;84;21057;-61
2021/12/12 03:28:01;;;;;;;15.30;13.23;;;;;;;7.70;90.56;100897.25;1682749;83;20999;-60
2021/12/12 03:30:29;;;;;;;17.87;14.50;;;;;;;7.67;90.66;100901.56;1655100;86;21237;-59
2021/12/12 03:32:56;;;;;;;15.57;13.70;;;;;;;7.64;91.11;100908.50;1699272;84;21078;-58
2021/12/12 03:35:22;;;;;;;14.93;13.40;;;;;;;7.60;91.31;100902.16;1654835;84;21214;-59
2021/12/12 03:37:49;;;;;;;16.17;13.53;;;;;;;7.62;91.44;100910.47;1663383;84;21030;-59
2021/12/12 03:40:21;;;;;;;18.73;14.07;;;;;;;7.59;92.07;100907.63;1679431;84;21123;-60
2021/12/12 03:42:51;;;;;;;24.03;14.37;;;;;;;7.49;92.85;100914.34;1689926;84;21179;-60
2021/12/12 03:45:18;;;;;;;22.50;15.50;;;;;;;7.49;92.77;100906.39;1662825;85;21127;-60
2021/12/12 03:47:53;;;;;;;21.37;14.47;;;;;;;7.46;93.45;100914.67;1660766;86;21122;-60
2021/12/12 03:50:25;;;;;;;23.70;15.77;;;;;;;7.37;94.23;100927.53;1654565;86;21070;-61
2021/12/12 03:52:53;;;;;;;25.00;16.60;;;;;;;7.28;94.77;100920.48;1663858;85;21149;-59
2021/12/12 03:55:20;;;;;;;26.20;17.17;;;;;;;7.15;95.76;100917.71;1648727;85;20979;-60
2021/12/12 03:57:48;;;;;;;25.27;17.20;;;;;;;7.14;95.64;100921.36;1648781;86;21709;-61
2021/12/12 04:00:20;;;;;;;23.60;17.27;;;;;;;7.10;96.17;100915.17;1644162;85;21116;-59
2021/12/12 04:02:48;;;;;;;23.97;17.03;;;;;;;7.06;96.17;100921.27;1670349;84;21077;-61
2021/12/12 04:05:14;;;;;;;23.53;16.33;;;;;;;6.98;96.77;100918.05;1654841;85;21551;-59
2021/12/12 04:07:40;;;;;;;23.50;17.12;;;;;;;6.94;96.87;100925.96;1652248;84;21073;-58
2021/12/12 04:10:13;;;;;;;18.93;15.77;;;;;;;6.94;96.86;100924.64;1670616;84;21092;-60
2021/12/12 04:12:41;;;;;;;17.53;14.97;;;;;;;6.99;96.91;100924.20;1678450;84;21053;-59
2021/12/12 04:15:09;;;;;;;21.80;15.53;;;;;;;7.01;97.04;100940.28;1680152;84;21091;-61
2021/12/12 04:17:36;;;;;;;20.67;15.07;;;;;;;7.05;96.85;100936.84;1651562;86;21053;-60
2021/12/12 04:20:11;;;;;;;18.30;14.07;;;;;;;7.09;96.84;100943.51;1645934;86;21011;-60
2021/12/12 04:22:37;;;;;;;18.40;13.60;;;;;;;7.07;96.66;100941.50;1653761;85;21141;-59
2021/12/12 04:25:06;;;;;;;18.75;14.05;;;;;;;7.07;96.66;100948.13;1676355;85;22255;-60
2021/12/12 04:27:35;;;;;;;15.77;13.20;;;;;;;7.08;96.50;100946.30;1668383;84;21050;-62
2021/12/12 04:30:04;;;;;;;17.20;13.87;;;;;;;7.05;96.45;100943.47;1637648;85;21566;-61
2021/12/12 04:32:33;;;;;;;17.37;14.80;;;;;;;7.01;96.60;100942.11;1644496;86;21078;-59
2021/12/12 04:35:05;;;;;;;16.93;13.57;;;;;;;7.02;96.48;100939.28;1659040;85;21086;-60
2021/12/12 04:37:32;;;;;;;20.30;14.30;;;;;;;7.04;96.60;100942.29;1657715;85;21581;-58
2021/12/12 04:39:59;;;;;;;19.97;14.90;;;;;;;7.03;96.57;100946.77;1660912;85;21064;-60
2021/12/12 04:42:31;;;;;;;20.17;14.73;;;;;;;6.99;96.57;100937.45;1666133;85;22529;-60
2021/12/12 04:45:23;;;;;;;22.83;17.13;;;;;;;6.99;96.50;100948.88;1639258;85;21043;-61
2021/12/12 04:51:19;;;;;;;17.53;14.33;;;;;;;6.98;96.64;100945.87;1655354;85;21132;-60
2021/12/12 04:53:55;;;;;;;20.43;14.97;;;;;;;7.03;96.62;100941.47;1654613;85;20992;-60
2021/12/12 04:56:29;;;;;;;16.03;12.93;;;;;;;7.06;96.50;100940.32;1657226;84;21462;-60
2021/12/12 04:59:13;;;;;;;21.10;15.87;;;;;;;7.07;96.44;100939.35;1665762;84;21690;-60
2021/12/12 05:01:55;;;;;;;25.67;15.87;;;;;;;7.03;96.27;100940.14;1673943;84;21555;-61
2021/12/12 05:04:48;;;;;;;22.27;17.37;;;;;;;6.99;96.24;100936.13;1681434;84;21755;-60
2021/12/12 05:07:20;;;;;;;19.50;15.33;;;;;;;6.99;96.16;100941.44;1625492;85;21076;-60
2021/12/12 05:09:54;;;;;;;21.70;16.40;;;;;;;6.90;96.43;100944.48;1671789;84;21572;-61
2021/12/12 05:12:32;;;;;;;27.90;17.73;;;;;;;6.89;96.21;100945.44;1668156;84;21138;-59
2021/12/12 05:15:07;;;;;;;23.03;17.43;;;;;;;6.84;96.27;100939.78;1652115;85;21046;-59
2021/12/12 05:17:43;;;;;;;22.00;17.95;;;;;;;6.80;96.31;100940.57;1669951;84;21019;-59
2021/12/12 05:20:15;;;;;;;24.27;17.60;;;;;;;6.75;96.40;100957.39;1681034;84;21003;-58
2021/12/12 05:22:47;;;;;;;23.23;17.60;;;;;;;6.68;96.28;100958.96;1674478;84;21072;-59
2021/12/12 05:25:28;;;;;;;23.10;17.23;;;;;;;6.57;96.38;100956.51;1685670;84;21000;-59
2021/12/12 05:27:57;;;;;;;28.67;18.73;;;;;;;6.50;96.49;100957.60;1672319;85;21055;-60
2021/12/12 05:30:28;;;;;;;29.97;18.83;;;;;;;6.49;96.62;100965.69;1675666;84;21136;-60
2021/12/12 05:32:56;;;;;;;25.57;18.77;;;;;;;6.44;96.78;100955.52;1631922;85;21018;-59
2021/12/12 05:35:27;;;;;;;26.50;18.23;;;;;;;6.47;96.81;100955.23;1661603;85;21055;-59
2021/12/12 05:37:55;;;;;;;20.67;15.83;;;;;;;6.51;96.82;100961.90;1664718;84;21225;-59
2021/12/12 05:40:26;;;;;;;26.70;18.57;;;;;;;6.49;96.77;100967.02;1672112;85;21138;-59
2021/12/12 05:42:59;;;;;;;23.40;16.67;;;;;;;6.49;96.62;100972.31;1682783;85;21033;-60
2021/12/12 05:45:24;;;;;;;24.13;17.73;;;;;;;6.40;96.68;100969.56;1682864;84;21571;-60
2021/12/12 05:47:50;;;;;;;;;;;;;;;6.42;96.61;100979.52;1684454;83;21092;-60
2021/12/12 05:50:20;;;;;;;27.00;18.40;;;;;;;6.46;96.68;100985.83;1685719;83;20158;-59
2021/12/12 05:52:47;;;;;;;27.17;16.37;;;;;;;6.42;96.80;100988.79;1642287;86;21015;-59
2021/12/12 05:55:15;;;;;;;24.67;17.30;;;;;;;6.46;96.79;100984.04;1636409;87;21070;-61
2021/12/12 05:57:45;;;;;;;22.03;15.77;;;;;;;6.50;96.56;101001.77;1658929;85;21550;-59
2021/12/12 06:00:15;;;;;;;22.13;15.43;;;;;;;6.45;96.24;100990.80;1672425;85;21033;-59
2021/12/12 06:05:28;;;;;;;23.13;16.03;;;;;;;6.38;96.59;100997.16;1781507;78;22701;-60
2021/12/12 06:07:57;;;;;;;23.40;15.90;;;;;;;6.38;96.33;101003.77;1736560;80;22169;-59
2021/12/12 06:10:25;;;;;;;25.80;17.60;;;;;;;6.43;96.22;101008.16;1726766;81;21046;-59
2021/12/12 06:12:53;;;;;;;22.27;14.50;;;;;;;6.44;96.13;101009.80;1674268;81;21026;-58
2021/12/12 06:15:23;;;;;;;19.60;14.33;;;;;;;6.30;95.89;101006.31;1658623;85;21124;-59
2021/12/12 06:17:51;;;;;;;19.23;14.33;;;;;;;6.27;95.78;101015.36;1657823;85;21483;-59
2021/12/12 06:20:19;;;;;;;22.17;15.30;;;;;;;6.18;95.96;101027.66;1655674;85;21033;-60
2021/12/12 06:22:47;;;;;;;19.17;13.33;;;;;;;6.18;96.04;101029.48;1661349;84;21061;-60
2021/12/12 06:25:15;;;;;;;19.17;13.70;;;;;;;6.17;96.22;101044.51;1656998;85;21096;-66
2021/12/12 06:27:43;;;;;;;19.87;14.13;;;;;;;6.09;96.38;101036.45;1653795;85;21034;-60
2021/12/12 06:30:15;;;;;;;22.20;14.20;;;;;;;6.03;96.50;101036.53;1606161;87;21025;-60
2021/12/12 06:32:44;;;;;;;16.83;12.30;;;;;;;6.03;96.37;101039.18;1637698;85;21049;-61
2021/12/12 06:35:11;;;;;;;17.90;13.97;;;;;;;5.92;96.37;101037.98;1645682;86;20995;-60
2021/12/12 06:37:38;;;;;;;16.20;12.37;;;;;;;5.94;96.17;101039.99;1622705;86;21550;-64
2021/12/12 06:40:10;;;;;;;18.27;12.63;;;;;;;5.92;96.27;101037.98;1680180;84;21142;-60
2021/12/12 06:42:37;;;;;;;21.67;12.10;;;;;;;5.88;96.19;101051.14;1677576;84;21577;-62
2021/12/12 06:45:08;;;;;;;20.10;11.83;;;;;;;5.84;95.89;101049.77;1677228;84;21002;-63
2021/12/12 06:47:36;;;;;;;18.83;11.73;;;;;;;5.84;95.80;101066.95;1680434;84;21058;-60
2021/12/12 06:50:05;;;;;;;17.70;11.73;;;;;;;5.73;95.84;101073.71;1683282;84;20994;-59
2021/12/12 06:52:33;;;;;;;21.90;11.90;;;;;;;5.68;95.90;101060.05;1649710;86;21119;-59
2021/12/12 06:55:00;;;;;;;22.03;14.00;;;;;;;5.56;96.24;101080.02;1680968;84;21054;-60
2021/12/12 06:57:28;;;;;;;17.90;12.87;;;;;;;5.55;96.14;101074.37;1677482;84;21095;-63
2021/12/12 06:59:56;;;;;;;18.60;13.53;;;;;;;5.51;96.26;101070.33;1680040;84;21096;-60
2021/12/12 07:02:25;;;;;;;19.83;13.77;;;;;;;5.45;96.35;101069.57;1680529;84;21026;-61
2021/12/12 07:04:53;;;;;;;17.33;12.83;;;;;;;5.46;96.38;101087.95;1681249;84;21089;-60
2021/12/12 07:07:19;;;;;;;16.53;11.83;;;;;;;5.50;96.42;101071.78;1677998;84;21316;-65
2021/12/12 07:09:47;;;;;;;18.57;13.63;;;;;;;5.43;96.31;101072.84;1679754;84;21018;-61
2021/12/12 07:12:22;;;;;;;18.63;12.63;;;;;;;5.46;96.24;101092.38;1676334;83;21045;-61
2021/12/12 07:14:45;;;;;;;18.17;11.47;;;;;;;5.39;95.76;101092.59;1690120;83;21061;-60
2021/12/12 07:17:14;;;;;;;19.03;12.47;;;;;;;5.33;95.41;101068.86;1683720;83;21006;-60
2021/12/12 07:19:43;;;;;;;16.70;13.13;;;;;;;5.34;95.41;101086.88;1688694;83;21029;-58
2021/12/12 07:22:09;;;;;;;19.70;13.50;;;;;;;5.26;95.41;101083.09;1673817;84;21039;-58
2021/12/12 07:24:36;;;;;;;17.90;12.67;;;;;;;5.24;95.45;101083.72;1668933;83;21049;-59
2021/12/12 07:27:03;;;;;;;18.45;12.90;;;;;;;5.31;95.49;101083.99;1675555;83;21132;-61
2021/12/12 07:29:30;;;;;;;21.43;13.40;;;;;;;5.33;95.39;101079.90;1674086;84;21668;-63
2021/12/12 07:31:57;;;;;;;;;;;;;;;5.28;95.13;101086.92;1678089;84;21560;-58
2021/12/12 07:34:25;;;;;;;20.52;13.22;;;;;;;5.28;95.09;101100.64;1651374;84;20171;-59
2021/12/12 07:36:57;;;;;;;25.40;16.03;;;;;;;5.23;95.03;101113.75;1650317;85;21042;-66
2021/12/12 07:39:25;;;;;;;21.37;16.30;;;;;;;5.23;95.00;101108.46;1653546;85;21071;-66
2021/12/12 07:41:54;;;;;;;25.60;16.50;;;;;;;5.23;94.92;101126.96;1646940;85;21532;-69
2021/12/12 07:44:25;;;;;;;25.93;16.30;;;;;;;5.16;94.72;101109.99;1646190;85;21941;-71
2021/12/12 07:46:53;;;;;;;24.27;16.07;;;;;;;4.99;94.84;101100.03;1647836;85;21035;-74
2021/12/12 07:49:23;;;;;;;27.27;19.10;;;;;;;5.03;94.98;101103.62;1654494;85;21332;-72
2021/12/12 07:51:50;;;;;;;27.40;18.27;;;;;;;4.99;95.00;101104.00;1667893;84;21053;-75
2021/12/12 07:54:17;;;;;;;28.70;16.40;;;;;;;5.00;95.05;101117.58;1665372;84;21529;-69
2021/12/12 07:56:45;;;;;;;22.00;15.48;;;;;;;4.93;95.16;101101.41;1671972;81;21612;-71
2021/12/12 07:59:14;;;;;;;40.20;25.43;;;;;;;4.93;94.97;101093.48;1639568;85;21078;-73
2021/12/12 08:01:45;;;;;;;45.97;28.57;;;;;;;4.94;94.99;101100.94;1669650;84;21051;-73
2021/12/12 08:04:14;;;;;;;39.47;25.13;;;;;;;4.97;94.79;101110.77;1664427;84;21086;-73
2021/12/12 08:06:42;;;;;;;32.20;19.10;;;;;;;4.93;94.83;101103.22;1667220;84;21118;-71
2021/12/12 08:09:12;;;;;;;28.40;19.13;;;;;;;4.95;94.66;101111.84;1658910;84;21014;-72
2021/12/12 08:11:41;;;;;;;27.80;18.83;;;;;;;4.97;94.53;101109.44;1665134;82;20998;-63
2021/12/12 08:14:12;;;;;;;26.43;16.80;;;;;;;4.98;94.56;101101.85;1671031;84;21112;-64
2021/12/12 08:16:39;;;;;;;21.30;15.83;;;;;;;5.03;94.30;101102.79;1678051;84;21101;-60
2021/12/12 08:19:05;;;;;;;;;;;;;;;5.09;94.22;101114.63;1668426;84;21549;-62
2021/12/12 08:21:33;;;;;;;22.37;14.40;;;;;;;5.07;93.68;101110.80;1657269;84;20506;-62
2021/12/12 08:24:07;;;;;;;21.63;13.93;;;;;;;4.94;93.50;101102.27;1677166;83;21037;-59
2021/12/12 08:26:37;;;;;;;27.20;15.43;;;;;;;4.85;93.74;101112.63;1664690;84;21122;-62
2021/12/12 08:29:08;;;;;;;25.23;15.60;;;;;;;4.63;94.58;101112.34;1647567;84;21051;-62
2021/12/12 08:31:36;;;;;;;23.80;16.03;;;;;;;4.61;95.01;101108.13;1651353;84;21025;-61
2021/12/12 08:34:06;;;;;;;27.57;14.17;;;;;;;4.48;95.61;101124.17;1671112;84;21071;-62
2021/12/12 08:36:38;;;;;;;22.67;15.57;;;;;;;4.35;96.21;101133.62;1644331;85;21050;-62
2021/12/12 08:39:07;;;;;;;24.20;15.40;;;;;;;4.36;96.58;101145.84;1645011;85;21087;-63
2021/12/12 08:41:35;;;;;;;24.07;15.03;;;;;;;4.36;96.48;101132.65;1639865;85;21030;-62
2021/12/12 08:44:05;;;;;;;22.37;15.90;;;;;;;4.38;96.56;101110.92;1633751;86;21161;-63
2021/12/12 08:46:31;;;;;;;27.33;15.40;;;;;;;4.40;96.82;101104.19;1624111;86;21145;-60
2021/12/12 08:48:58;;;;;;;;;;;;;;;4.44;96.82;101104.28;1639669;85;21021;-61
2021/12/12 08:51:32;;;;;;;21.23;14.00;;;;;;;4.41;96.68;101103.24;1638165;85;20148;-60
2021/12/12 08:54:12;;;;;;;27.80;15.47;;;;;;;4.40;96.79;101106.34;1628573;86;21583;-60
2021/12/12 08:56:45;;;;;;;21.00;13.83;;;;;;;4.42;96.90;101112.33;1675404;82;21344;-61
2021/12/12 08:59:23;;;;;;;21.50;14.73;;;;;;;4.45;96.69;101112.08;1698806;82;21046;-62
2021/12/12 09:01:55;;;;;;;23.30;14.70;;;;;;;4.47;96.32;101114.10;1668299;83;21047;-62
2021/12/12 09:04:21;;;;;;;24.37;15.27;;;;;;;4.43;96.27;101111.86;1659440;84;21081;-61
2021/12/12 09:06:59;;;;;;;26.40;17.05;;;;;;;4.46;96.33;101108.95;1670646;84;21078;-60
2021/12/12 09:09:30;;;;;;;28.77;18.27;;;;;;;4.47;96.39;101117.23;1651004;84;21007;-59
2021/12/12 09:12:11;;;;;;;24.63;17.60;;;;;;;4.52;96.33;101110.23;1669812;83;21027;-62
2021/12/12 09:14:48;;;;;;;25.43;17.40;;;;;;;4.49;95.88;101120.58;1668619;84;21005;-63
2021/12/12 09:17:33;;;;;;;22.50;16.53;;;;;;;4.45;95.52;101112.08;1665683;84;21066;-61
2021/12/12 09:20:10;;;;;;;27.77;18.70;;;;;;;4.38;95.34;101116.69;1672854;84;21021;-65
2021/12/12 09:22:49;;;;;;;28.30;19.80;;;;;;;4.32;95.42;101105.33;1669191;83;21037;-61
2021/12/12 09:25:35;;;;;;;;;;;;;;;4.27;95.70;101101.25;1676655;84;21131;-60
2021/12/12 09:28:20;;;;;;;28.60;19.63;;;;;;;4.28;95.93;101110.86;1671843;84;20182;-62
2021/12/12 09:30:47;;;;;;;25.67;18.87;;;;;;;4.27;96.06;101114.45;1676866;84;21045;-64
2021/12/12 09:33:21;;;;;;;25.23;17.17;;;;;;;4.26;95.96;101119.39;1680584;84;21053;-61
2021/12/12 09:36:04;;;;;;;22.23;16.33;;;;;;;4.31;95.82;101121.63;1658745;85;21040;-62
2021/12/12 09:38:48;;;;;;;25.00;16.17;;;;;;;4.34;95.54;101139.86;1654534;85;21069;-61
2021/12/12 09:41:57;;;;;;;22.40;15.97;;;;;;;4.20;95.21;101114.63;1655515;85;21599;-60
2021/12/12 09:44:53;;;;;;;24.97;18.27;;;;;;;4.06;95.41;101108.33;1655182;83;21053;-60
2021/12/12 09:54:14;;;;;;;30.17;20.03;;;;;;;3.82;96.70;101109.37;1653584;85;21137;-60
2021/12/12 09:57:04;;;;;;;27.63;19.30;;;;;;;3.82;96.84;101113.81;1658508;83;21029;-62
2021/12/12 10:00:02;;;;;;;30.37;20.20;;;;;;;3.80;96.76;101121.84;1657611;84;21074;-62
2021/12/12 10:02:51;;;;;;;30.80;22.57;;;;;;;3.76;96.70;101122.23;1625906;85;21104;-61
2021/12/12 10:05:34;;;;;;;34.57;22.50;;;;;;;3.70;96.68;101111.70;1660419;84;21617;-61
2021/12/12 10:08:25;;;;;;;35.33;22.87;;;;;;;3.71;96.74;101113.36;1658885;84;20982;-65
2021/12/12 10:11:11;;;;;;;27.07;19.53;;;;;;;3.73;96.96;101109.29;1654913;84;21002;-65
2021/12/12 10:14:13;;;;;;;27.82;19.82;;;;;;;3.77;96.97;101123.44;1657220;84;20978;-66
2021/12/12 10:17:07;;;;;;;27.63;19.50;;;;;;;3.81;96.71;101112.16;1658519;85;20958;-60
2021/12/12 10:19:45;;;;;;;28.53;20.43;;;;;;;3.80;96.50;101119.21;1622461;86;20978;-63
2021/12/12 10:22:26;;;;;;;;;;;;;;;3.82;96.31;101111.18;1637758;83;21408;-65
2021/12/12 10:25:10;;;;;;;28.27;20.40;;;;;;;3.86;96.39;101108.64;1650918;84;20571;-62
2021/12/12 10:27:53;;;;;;;30.33;21.30;;;;;;;3.87;96.40;101114.29;1654990;85;21027;-65
2021/12/12 10:30:25;;;;;;;30.97;20.30;;;;;;;3.92;96.18;101123.98;1658500;85;20991;-61
2021/12/12 10:33:09;;;;;;;27.60;18.93;;;;;;;3.97;95.95;101128.87;1646766;85;21844;-61
2021/12/12 10:36:09;;;;;;;34.43;20.00;;;;;;;3.99;95.63;101130.41;1656324;84;21537;-61
2021/12/12 10:38:44;;;;;;;26.90;17.80;;;;;;;3.88;94.85;101119.90;1666850;84;21061;-59
2021/12/12 10:41:19;;;;;;;28.80;18.67;;;;;;;3.84;94.97;101114.52;1667584;83;21087;-61
2021/12/12 10:44:01;;;;;;;24.77;17.17;;;;;;;3.86;95.08;101112.14;1675008;84;21038;-62
2021/12/12 10:46:45;;;;;;;24.80;16.60;;;;;;;3.88;94.90;101116.80;1654779;84;21051;-61
2021/12/12 10:49:31;;;;;;;20.57;14.67;;;;;;;3.91;94.84;101118.34;1596461;84;21076;-64
2021/12/12 10:52:06;;;;;;;27.37;16.67;;;;;;;3.86;94.15;101111.28;1666004;84;21088;-63
2021/12/12 10:54:41;;;;;;;22.23;15.80;;;;;;;3.85;93.89;101100.39;1668686;84;21070;-63
2021/12/12 10:57:31;;;;;;;24.70;16.37;;;;;;;3.83;93.88;101093.09;1673420;82;21671;-62
2021/12/12 11:00:15;;;;;;;22.77;15.27;;;;;;;3.74;93.72;101097.80;1663170;84;21147;-63
2021/12/12 11:02:52;;;;;;;25.37;16.43;;;;;;;3.60;93.93;101098.89;1671027;84;21043;-65
2021/12/12 11:05:33;;;;;;;24.47;18.43;;;;;;;3.60;94.05;101096.26;1661148;84;21564;-62
2021/12/12 11:08:39;;;;;;;24.50;16.37;;;;;;;3.64;94.25;101100.34;1668739;84;21542;-61
2021/12/12 11:11:14;;;;;;;24.80;18.10;;;;;;;3.67;94.28;101090.39;1677855;83;21048;-61
2021/12/12 11:13:54;;;;;;;21.33;14.03;;;;;;;3.68;94.05;101094.69;1641317;86;21002;-62
2021/12/12 11:16:39;;;;;;;21.17;15.00;;;;;;;3.56;94.08;101085.16;1614170;86;21128;-61
2021/12/12 11:19:31;;;;;;;19.03;14.50;;;;;;;3.55;94.08;101087.42;1630035;86;21103;-63
2021/12/12 11:22:03;;;;;;;15.63;11.87;;;;;;;3.60;94.32;101079.98;1632289;86;21142;-62
2021/12/12 11:24:41;;;;;;;21.63;12.43;;;;;;;3.63;94.13;101082.84;1644837;86;21078;-63
2021/12/12 11:27:12;;;;;;;17.60;12.73;;;;;;;3.53;94.18;101090.66;1630666;86;21073;-61
2021/12/12 11:29:44;;;;;;;17.57;12.60;;;;;;;3.47;94.25;101076.67;1615979;86;21069;-62
2021/12/12 11:32:16;;;;;;;17.07;11.80;;;;;;;3.40;94.58;101074.16;1633004;86;21057;-61
2021/12/12 11:34:47;;;;;;;20.50;12.53;;;;;;;3.43;94.58;101080.03;1638551;86;21010;-62
2021/12/12 11:37:42;;;;;;;18.50;12.37;;;;;;;3.44;94.52;101068.51;1643885;86;21036;-61
2021/12/12 11:40:31;;;;;;;17.93;12.43;;;;;;;3.46;94.39;101061.80;1619116;87;21153;-61
2021/12/12 11:43:18;;;;;;;16.70;12.07;;;;;;;3.44;94.52;101060.61;1650127;86;21109;-62
2021/12/12 11:45:57;;;;;;;16.10;12.90;;;;;;;3.39;94.33;101065.89;1631736;86;21018;-61
2021/12/12 11:48:41;;;;;;;16.70;10.87;;;;;;;3.44;94.35;101060.61;1638794;86;21125;-62
2021/12/12 11:51:16;;;;;;;14.80;11.30;;;;;;;3.51;94.25;101063.10;1625939;86;21538;-62
2021/12/12 11:53:53;;;;;;;16.27;12.50;;;;;;;3.57;94.01;101080.71;1637410;86;21074;-61
2021/12/12 11:56:34;;;;;;;14.87;10.85;;;;;;;3.59;93.86;101083.56;1650370;85;21055;-62
2021/12/12 11:59:25;;;;;;;14.17;10.93;;;;;;;3.66;93.77;101060.19;1652370;85;21590;-61
2021/12/12 12:02:02;;;;;;;16.17;11.73;;;;;;;3.70;93.07;101053.20;1664364;85;21512;-63
2021/12/12 12:04:55;;;;;;;13.17;11.73;;;;;;;3.73;92.73;101064.46;1668553;86;21042;-60
2021/12/12 12:08:02;;;;;;;14.53;10.30;;;;;;;3.75;92.35;101055.94;1668131;85;21033;-61
2021/12/12 12:11:06;;;;;;;12.67;9.50;;;;;;;3.78;92.47;101058.34;1668808;84;21110;-64
2021/12/12 12:13:56;;;;;;;12.23;8.80;;;;;;;3.81;92.03;101051.50;1660488;84;21082;-63
2021/12/12 12:16:44;;;;;;;13.50;10.43;;;;;;;3.81;91.87;101054.14;1668077;84;21551;-63
2021/12/12 12:19:39;;;;;;;13.13;9.03;;;;;;;3.76;91.81;101051.03;1665650;84;20997;-64
2021/12/12 12:22:30;;;;;;;12.93;9.80;;;;;;;3.65;91.82;101051.42;1667031;84;21592;-61